SHASTA DAM (USBR) (SHA)

Elevation: 1067' · SACRAMENTO R basin · Operator: US Bureau of Reclamation

Provisional data, subject to change.
Query executed Wednesday at 2:48:21   clock

Select a sensor type for a plot of data.
Note: Reservoir Flows are daily averages.

Earlier

Date RES ELE    STORAGE    RES CHG    TOC STO    ABV TOC    OUTFLOW    INFLOW    EVAP    FNF    RIV REL    PPT INC    RAIN    SPILL    DIS PWR   
 FEET   AF   AF   AF   AF   CFS   CFS   CFS   CFS   CFS   INCHES   INCHES   CFS   CFS  
04/05/2016 1050.52 4077546 11106 4000800 77074 4678 10399 122 8897 0 0.00 59.81 0 4678
04/06/2016 1050.75 4083933 6387 4046343 37590 5062 8732 450 9023 0 0.00 59.81 0 5062
04/07/2016 1050.89 4087820 3887 4094971 -7151 5124 7264 180 8660 0 0.00 59.81 0 5124
04/08/2016 1051.16 4095338 7518 4137831 -42493 4644 8581 147 8578 0 0.00 59.81 0 4644
04/09/2016 1051.58 4107055 11717 4175742 -68688 3622 9726 197 9142 0 0.00 59.81 0 3622
04/10/2016 1051.88 4115425 8370 4214718 -99292 4799 9027 8 8485 0 0.41 60.22 0 4799
04/11/2016 1052.29 4126901 11476 4251992 -125090 3401 9195 8 9475 0 0.09 60.31 0 3401
04/12/2016 1052.55 4134189 7288 4290894 -156706 4462 8326 190 9493 0 0.38 60.69 0 4462
04/13/2016 1052.86 4142878 8689 4327349 -184471 4229 8734 124 9193 0 0.04 60.73 0 4229
04/14/2016 1053.15 4151026 8148 4359878 -208852 4694 8810 8 8290 0 0.02 60.75 0 4694
04/15/2016 1053.44 4159192 8166 4385851 -226659 4492 8725 116 8317 0 0.04 60.79 0 4492
04/16/2016 1053.68 4165950 6758 4410740 -244790 4442 7948 99 7822 0 0.00 60.79 0 4442
04/17/2016 1053.93 4172990 7040 4432348 -259358 4760 8458 149 7554 0 0.00 60.79 0 4760
04/18/2016 1054.02 4175527 2537 4454672 -279146 4887 6357 191 7410 0 0.00 60.79 0 4887
04/19/2016 1054.17 4179771 4244 4473562 -293790 4468 6915 307 8419 e 0 0.00 60.79 0 4468
04/20/2016 1054.33 4184298 4527 4489754 -302929 4826 7224 116 8418 e 0 0.00 60.79 0 4826
04/21/2016 1054.50 4189108 4810 4504404 -315296 4025 6616 166 7221 0 0.00 60.79 0 4025
04/22/2016 1054.81 4197878 8770 4515099 -317221 4535 8998 42 9547 0 0.41 61.20 0 4535
04/23/2016 1054.98 4202688 4810 4525492 -322804 4982 7499 92 7407 0 0.34 61.54 0 4982
04/24/2016 1055.12 4206665 3977 4534540 -327876 4781 6919 133 7348 0 0.00 61.54 0 4781
04/25/2016 1055.18 4208371 1706 4542236 -333865 4818 5845 167 6344 0 0.00 61.54 0 4818
04/26/2016 1055.38 4214057 5686 4547734 -333678 4708 7884 309 6587 0 0.00 61.54 0 4708
04/27/2016 1055.61 4220596 6539 4552100 -331504 4569 7991 125 7366 61 0.00 61.54 0 4508
04/28/2016 1055.68 4222586 -- 4552100 -329514 4550 5637 84 6477 0 0.04 61.58 0 4550
04/29/2016 1055.82 4226566 3980 4552100 -325534 4381 6455 67 5858 0 0.00 61.58 0 4381
04/30/2016 1056.05 4233111 6545 4552100 -318989 4757 8191 134 5691 0 0.00 61.58 0 4757
05/01/2016 1056.11 4234824 1713 4552100 -317276 5242 6273 167 5562 0 0.00 61.58 0 5242
05/02/2016 1056.06 4233396 -1428 4552100 -318704 5090 4563 193 5549 0 0.00 61.58 0 5090
05/03/2016 -- -- -- -- -- -- -- -- -- -- -- -- -- --
05/04/2016 -- -- -- -- -- -- -- -- -- -- -- -- -- --

Later | Latest

Warning! This data is preliminary and subject to revision.

Show SHA Map | Plot SHA Data | 1 Month SHA Data | Real-Time SHA Data | SHA Info